Hovedside
METAR-TAF:

METAR-TAF

Lufthavner :

Pontianak, Indonesia

breddegrad: 00-09S, lengdegrad: 109-24E, høyde over havet: 3 m

Gjeldene værobservasjon

Denne rapporten ble laget for 44 minutter siden, klokken 02:30 UTC
Vind 10 kt fra Sør-sørøst
Temperatur 28°C
Luftfuktighet 84%
Trykk 1010 hPa
Sikt 10 km eller mer
Få skyer i en høyde av 1200 ft

METAR: WIOO 220230Z 16010KT 9999 FEW012 28/25 Q1010 NOSIG

Tid: 10:14 (03:14 UTC)


TAF: fraværende

Værobservasjoner og værvarsel for over 4000 flyplasser (METAR- og TAF-rapporter).

Tilgjengelige stasjoner er representert av de røde og gule prikkene på kartet.

Hold musepekeren over prikken for å se navnet på stasjonen.

Klikk så for å se værobservasjoner og -varsler.

For å forandre kartet kan du klikke på den grønne knappen med svart kryss for å zoome inn, på den grønne knappen med strek for å zoome ut, eller på de grønne pilene for å se tilstøtende kart.


METAR-TAF: